createdAt,value
2022-12-10T00:02:24.129Z,11.27
2022-12-10T00:05:12.478Z,9.87
2022-12-10T00:07:58.945Z,10.80
2022-12-10T00:10:45.300Z,11.33
2022-12-10T00:13:31.767Z,11.90
2022-12-10T00:16:20.082Z,10.53
2022-12-10T00:19:07.184Z,11.53
2022-12-10T00:21:55.287Z,10.23
2022-12-10T00:24:42.465Z,11.67
2022-12-10T00:27:29.030Z,10.77
2022-12-10T00:30:15.586Z,11.90
2022-12-10T00:33:02.033Z,11.93
2022-12-10T00:35:48.645Z,13.10
2022-12-10T00:38:37.284Z,12.10
2022-12-10T00:41:23.902Z,11.87
2022-12-10T00:44:10.725Z,12.27
2022-12-10T00:46:57.338Z,11.43
2022-12-10T00:49:43.896Z,11.40
2022-12-10T00:52:30.202Z,11.80
2022-12-10T00:55:18.240Z,11.30
2022-12-10T00:58:04.659Z,12.27
2022-12-10T01:00:51.501Z,11.80
2022-12-10T01:03:38.730Z,12.27
2022-12-10T01:06:27.742Z,13.40
2022-12-10T01:09:17.844Z,13.07
2022-12-10T01:12:06.842Z,12.90
2022-12-10T01:14:53.250Z,12.77
2022-12-10T01:17:39.894Z,13.43
2022-12-10T01:20:26.281Z,13.37
2022-12-10T01:23:12.673Z,12.87
2022-12-10T01:26:02.722Z,13.97
2022-12-10T01:28:51.390Z,13.57
2022-12-10T01:31:39.353Z,13.43
2022-12-10T01:34:26.414Z,14.27
2022-12-10T01:37:13.156Z,13.73
2022-12-10T01:39:59.546Z,15.13
2022-12-10T01:42:45.908Z,14.50
2022-12-10T01:45:33.849Z,14.93
2022-12-10T01:48:21.070Z,13.47
2022-12-10T01:51:08.133Z,13.80
2022-12-10T01:53:55.038Z,14.57
2022-12-10T01:56:45.565Z,14.00
2022-12-10T01:59:32.915Z,14.33
2022-12-10T02:02:44.066Z,14.40
2022-12-10T02:05:37.566Z,15.50
2022-12-10T02:08:29.674Z,14.87
2022-12-10T02:11:23.223Z,13.83
2022-12-10T02:14:17.215Z,15.73
2022-12-10T02:17:11.879Z,15.40
2022-12-10T02:20:14.060Z,14.70
2022-12-10T02:23:04.869Z,15.37
2022-12-10T02:26:00.373Z,14.70
2022-12-10T02:28:53.543Z,14.77
2022-12-10T02:31:45.913Z,14.70
2022-12-10T02:34:37.694Z,15.77
2022-12-10T02:37:29.146Z,15.93
2022-12-10T02:40:20.394Z,15.70
2022-12-10T02:43:08.403Z,15.10
2022-12-10T02:45:57.278Z,14.40
2022-12-10T02:48:47.650Z,14.63
2022-12-10T02:51:34.582Z,15.57
2022-12-10T02:54:42.587Z,13.70
2022-12-10T02:57:39.045Z,14.87
2022-12-10T03:00:26.887Z,14.07
2022-12-10T03:03:25.255Z,15.07
2022-12-10T03:06:18.841Z,15.10
2022-12-10T03:09:09.053Z,14.70
2022-12-10T03:12:01.222Z,14.53
2022-12-10T03:14:48.046Z,15.23
2022-12-10T03:17:34.856Z,15.63
2022-12-10T03:20:22.362Z,15.53
2022-12-10T03:23:14.361Z,15.50
2022-12-10T03:26:01.909Z,17.27
2022-12-10T03:28:52.442Z,16.07
2022-12-10T03:31:41.419Z,15.27
2022-12-10T03:34:28.233Z,15.30
2022-12-10T03:37:15.952Z,14.93
2022-12-10T03:40:05.739Z,14.67
2022-12-10T03:42:53.130Z,14.43
2022-12-10T03:45:41.056Z,14.57
2022-12-10T03:48:27.685Z,13.90
2022-12-10T03:51:14.259Z,15.00
2022-12-10T03:54:00.747Z,15.27
2022-12-10T03:56:48.939Z,15.27
2022-12-10T03:59:35.337Z,15.20
2022-12-10T04:02:21.823Z,14.77
2022-12-10T04:05:09.232Z,14.13
2022-12-10T04:07:55.762Z,14.57
2022-12-10T04:10:42.797Z,14.47
2022-12-10T04:13:50.324Z,14.60
2022-12-10T04:16:37.728Z,13.90
2022-12-10T04:19:24.814Z,15.80
2022-12-10T04:22:29.555Z,16.43
2022-12-10T04:25:41.876Z,15.03
2022-12-10T04:28:29.868Z,16.80
2022-12-10T04:31:16.369Z,17.33
2022-12-10T04:34:02.825Z,16.63
2022-12-10T04:36:49.874Z,16.53
2022-12-10T04:39:36.551Z,16.27
2022-12-10T04:42:24.140Z,16.40
2022-12-10T04:45:12.465Z,13.50
2022-12-10T04:47:58.799Z,16.03
2022-12-10T04:50:45.177Z,17.00
2022-12-10T04:53:31.792Z,15.63
2022-12-10T04:56:18.329Z,15.20
2022-12-10T04:59:06.642Z,14.93
2022-12-10T05:01:54.670Z,15.97
2022-12-10T05:04:41.366Z,15.67
2022-12-10T05:07:27.797Z,15.20
2022-12-10T05:10:14.402Z,21.27
2022-12-10T05:13:00.648Z,16.07
2022-12-10T05:15:47.088Z,16.47
2022-12-10T05:18:35.285Z,16.70
2022-12-10T05:21:23.320Z,15.90
2022-12-10T05:24:09.111Z,15.73
2022-12-10T05:26:55.911Z,15.07
2022-12-10T05:29:42.318Z,16.50
2022-12-10T05:32:28.846Z,17.77
2022-12-10T05:35:16.914Z,15.53
2022-12-10T05:38:03.721Z,17.23
2022-12-10T05:40:55.422Z,16.47
2022-12-10T05:43:43.536Z,16.40
2022-12-10T05:46:32.441Z,15.87
2022-12-10T05:49:19.328Z,15.30
2022-12-10T05:52:07.466Z,17.13
2022-12-10T05:54:54.176Z,15.90
2022-12-10T05:57:40.819Z,16.53
2022-12-10T06:00:28.125Z,15.37
2022-12-10T06:03:14.580Z,16.90
2022-12-10T06:06:01.538Z,17.27
2022-12-10T06:08:49.447Z,16.80
2022-12-10T06:11:36.261Z,17.40
2022-12-10T06:14:23.071Z,15.27
2022-12-10T06:17:09.549Z,17.00
2022-12-10T06:19:55.872Z,15.13
2022-12-10T06:22:42.310Z,16.90
2022-12-10T06:25:30.377Z,16.63
2022-12-10T06:28:17.263Z,17.57
2022-12-10T06:31:03.747Z,17.80
2022-12-10T06:33:50.911Z,16.90
2022-12-10T06:36:37.465Z,15.93
2022-12-10T06:39:24.274Z,16.10
2022-12-10T06:42:12.238Z,16.53
2022-12-10T06:44:59.050Z,16.27
2022-12-10T06:47:45.626Z,16.97
2022-12-10T06:50:32.518Z,16.87
2022-12-10T06:53:19.143Z,17.57
2022-12-10T06:56:07.010Z,17.10
2022-12-10T06:58:54.903Z,17.60
2022-12-10T07:01:42.062Z,16.90
2022-12-10T07:04:28.665Z,16.67
2022-12-10T07:07:15.231Z,18.03
2022-12-10T07:10:01.942Z,16.60
2022-12-10T07:12:48.352Z,17.53
2022-12-10T07:15:36.232Z,16.80
2022-12-10T07:18:23.038Z,18.03
2022-12-10T07:21:16.454Z,17.10
2022-12-10T07:24:04.640Z,16.73
2022-12-10T07:26:51.270Z,17.23
2022-12-10T07:29:38.117Z,17.30
2022-12-10T07:32:26.198Z,18.33
2022-12-10T07:35:12.755Z,17.20
2022-12-10T07:37:59.683Z,18.13
2022-12-10T07:40:46.131Z,17.47
2022-12-10T07:43:32.590Z,18.97
2022-12-10T07:46:21.229Z,17.93
2022-12-10T07:49:09.225Z,17.80
2022-12-10T07:51:56.090Z,19.03
2022-12-10T07:54:42.530Z,20.37
2022-12-10T07:57:30.833Z,18.77
2022-12-10T08:00:18.182Z,19.80
2022-12-10T08:03:05.149Z,18.07
2022-12-10T08:06:02.913Z,18.87
2022-12-10T08:08:50.404Z,17.40
2022-12-10T08:11:37.115Z,18.40
2022-12-10T08:14:23.605Z,17.53
2022-12-10T08:17:10.274Z,18.03
2022-12-10T08:19:56.745Z,19.30
2022-12-10T08:22:44.581Z,17.70
2022-12-10T08:25:33.788Z,17.77
2022-12-10T08:28:24.106Z,17.87
2022-12-10T08:31:12.875Z,16.33
2022-12-10T08:33:59.574Z,18.27
2022-12-10T08:36:47.221Z,17.60
2022-12-10T08:39:35.382Z,17.33
2022-12-10T08:42:22.027Z,17.00
2022-12-10T08:45:09.126Z,17.07
2022-12-10T08:47:55.677Z,17.20
2022-12-10T08:50:42.158Z,16.67
2022-12-10T08:53:28.580Z,16.70
2022-12-10T08:56:16.528Z,17.70
2022-12-10T08:59:03.355Z,16.20
2022-12-10T09:01:53.700Z,18.03
2022-12-10T09:04:43.631Z,16.27
2022-12-10T09:07:30.510Z,16.67
2022-12-10T09:10:17.522Z,17.17
2022-12-10T09:13:05.706Z,17.03
2022-12-10T09:15:53.647Z,15.20
2022-12-10T09:18:40.631Z,16.23
2022-12-10T09:21:27.535Z,16.93
2022-12-10T09:24:14.546Z,16.97
2022-12-10T09:27:02.318Z,15.97
2022-12-10T09:29:50.671Z,16.90
2022-12-10T09:32:37.536Z,16.70
2022-12-10T09:35:24.300Z,15.60
2022-12-10T09:38:11.437Z,15.40
2022-12-10T09:41:02.730Z,15.57
2022-12-10T09:43:53.550Z,16.67
2022-12-10T09:46:51.044Z,16.40
2022-12-10T09:49:47.709Z,16.47
2022-12-10T09:52:38.638Z,16.33
2022-12-10T09:55:30.069Z,15.70
2022-12-10T09:58:23.906Z,15.03
2022-12-10T10:01:18.418Z,14.37
2022-12-10T10:04:07.150Z,14.03
2022-12-10T10:06:54.212Z,13.77
2022-12-10T10:09:42.797Z,14.67
2022-12-10T10:12:30.482Z,15.30
2022-12-10T10:15:20.487Z,14.67
2022-12-10T10:18:15.477Z,13.63
2022-12-10T10:21:03.577Z,15.03
2022-12-10T10:23:50.777Z,15.23
2022-12-10T10:26:37.861Z,14.20
2022-12-10T10:29:27.401Z,14.17
2022-12-10T10:32:18.215Z,13.30
2022-12-10T10:35:06.679Z,13.63
2022-12-10T10:37:59.308Z,15.00
2022-12-10T10:40:48.347Z,14.70
2022-12-10T10:43:42.308Z,14.57
2022-12-10T10:46:29.776Z,12.60
2022-12-10T10:49:28.576Z,13.27
2022-12-10T10:52:18.584Z,15.70
2022-12-10T10:55:08.434Z,13.60
2022-12-10T10:57:55.268Z,13.40
2022-12-10T11:00:42.040Z,14.03
2022-12-10T11:03:30.851Z,14.13
2022-12-10T11:06:19.049Z,13.87
2022-12-10T11:09:07.395Z,13.53
2022-12-10T11:12:01.750Z,13.57
2022-12-10T11:14:48.400Z,13.40
2022-12-10T11:17:35.331Z,14.30
2022-12-10T11:20:24.843Z,14.03
2022-12-10T11:23:16.343Z,13.20
2022-12-10T11:26:18.631Z,12.10
2022-12-10T11:29:26.382Z,13.43
2022-12-10T11:32:28.575Z,13.50
2022-12-10T11:35:18.709Z,14.27
2022-12-10T11:38:13.476Z,12.87
2022-12-10T11:41:08.030Z,12.63
2022-12-10T11:44:15.392Z,13.00
2022-12-10T11:47:25.554Z,11.77
2022-12-10T11:50:21.587Z,12.93
2022-12-10T11:53:41.958Z,12.13
2022-12-10T11:56:32.696Z,12.37
2022-12-10T11:59:52.928Z,13.30
2022-12-10T12:03:03.209Z,13.90
2022-12-10T12:06:08.636Z,13.10
2022-12-10T12:09:02.196Z,13.23
2022-12-10T12:12:07.447Z,13.47
2022-12-10T12:15:00.227Z,12.70
2022-12-10T12:17:50.734Z,12.73
2022-12-10T12:20:43.625Z,12.83
2022-12-10T12:23:35.532Z,14.63
2022-12-10T12:26:28.098Z,14.40
2022-12-10T12:29:19.954Z,12.73
2022-12-10T12:32:15.454Z,12.47
2022-12-10T12:35:06.506Z,12.23
2022-12-10T12:37:59.484Z,11.93
2022-12-10T12:40:53.654Z,13.37
2022-12-10T12:43:49.781Z,12.53
2022-12-10T12:46:41.499Z,12.53
2022-12-10T12:49:32.550Z,13.20
2022-12-10T12:52:33.402Z,13.37
2022-12-10T12:55:26.137Z,12.50
2022-12-10T12:58:28.827Z,12.40
2022-12-10T13:01:25.233Z,11.57
2022-12-10T13:04:13.263Z,12.60
2022-12-10T13:07:29.807Z,13.13
2022-12-10T13:10:27.829Z,12.60
2022-12-10T13:13:27.521Z,12.27
2022-12-10T13:16:36.874Z,11.17
2022-12-10T13:19:32.738Z,13.13
2022-12-10T13:22:52.215Z,13.33
2022-12-10T13:25:57.475Z,13.57
2022-12-10T13:28:52.452Z,12.67
2022-12-10T13:31:40.246Z,13.37
2022-12-10T13:34:38.049Z,13.57
2022-12-10T13:37:33.188Z,13.73
2022-12-10T13:40:27.464Z,12.80
2022-12-10T13:43:46.013Z,12.67
2022-12-10T13:46:35.684Z,12.27
2022-12-10T13:49:24.371Z,12.70
2022-12-10T13:52:21.066Z,12.90
2022-12-10T13:55:24.945Z,12.20
2022-12-10T13:58:36.397Z,12.27
2022-12-10T14:01:38.141Z,11.83
2022-12-10T14:04:46.031Z,11.30
2022-12-10T14:07:33.756Z,11.90
2022-12-10T14:10:25.321Z,12.43
2022-12-10T14:13:16.121Z,11.70
2022-12-10T14:16:07.580Z,12.10
2022-12-10T14:18:57.846Z,11.80
2022-12-10T14:21:47.044Z,11.87
2022-12-10T14:24:37.860Z,11.17
2022-12-10T14:27:28.031Z,11.40
2022-12-10T14:30:19.946Z,10.67
2022-12-10T14:33:07.786Z,11.13
2022-12-10T14:35:55.241Z,11.53
2022-12-10T14:38:41.845Z,13.10
2022-12-10T14:41:37.511Z,13.47
2022-12-10T14:44:28.490Z,12.37
2022-12-10T14:47:17.663Z,12.80
2022-12-10T14:50:12.233Z,11.93
2022-12-10T14:52:58.641Z,11.03
2022-12-10T14:55:47.280Z,11.83
2022-12-10T14:58:42.245Z,12.17
2022-12-10T15:01:31.516Z,11.53
2022-12-10T15:04:26.254Z,11.53
2022-12-10T15:07:19.193Z,12.17
2022-12-10T15:10:14.965Z,11.93
2022-12-10T15:13:02.702Z,11.93
2022-12-10T15:15:52.195Z,13.00
2022-12-10T15:18:40.256Z,11.93
2022-12-10T15:21:27.441Z,13.13
2022-12-10T15:24:22.932Z,13.10
2022-12-10T15:27:18.461Z,12.70
2022-12-10T15:30:25.207Z,13.87
2022-12-10T15:33:27.797Z,12.97
2022-12-10T15:36:21.265Z,11.70
2022-12-10T15:39:17.697Z,12.90
2022-12-10T15:42:08.181Z,11.93
2022-12-10T15:44:58.710Z,12.37
2022-12-10T15:47:45.404Z,11.90
2022-12-10T15:50:32.195Z,13.27
2022-12-10T15:53:32.083Z,10.97
2022-12-10T15:56:21.733Z,11.50
2022-12-10T15:59:10.861Z,11.47
2022-12-10T16:01:58.178Z,12.43
2022-12-10T16:04:44.495Z,13.40
2022-12-10T16:07:30.897Z,12.50
2022-12-10T16:10:19.631Z,12.50
2022-12-10T16:13:08.765Z,12.93
2022-12-10T16:16:00.283Z,12.40
2022-12-10T16:18:47.993Z,12.60
2022-12-10T16:21:34.697Z,12.40
2022-12-10T16:24:21.331Z,11.37
2022-12-10T16:27:13.991Z,12.97
2022-12-10T16:30:01.370Z,11.13
2022-12-10T16:32:49.686Z,13.60
2022-12-10T16:35:36.176Z,13.43
2022-12-10T16:38:23.093Z,13.10
2022-12-10T16:41:20.096Z,13.60
2022-12-10T16:44:06.519Z,12.47
2022-12-10T16:46:53.677Z,11.80
2022-12-10T16:49:41.518Z,11.20
2022-12-10T16:52:28.167Z,11.50
2022-12-10T16:55:16.227Z,12.10
2022-12-10T16:58:03.025Z,11.57
2022-12-10T17:00:52.535Z,11.77
2022-12-10T17:03:39.182Z,11.63
2022-12-10T17:06:28.407Z,12.33
2022-12-10T17:09:14.875Z,12.40
2022-12-10T17:12:01.447Z,11.77
2022-12-10T17:14:47.932Z,13.53
2022-12-10T17:17:35.050Z,11.77
2022-12-10T17:20:22.141Z,12.17
2022-12-10T17:23:09.947Z,13.57
2022-12-10T17:25:58.385Z,12.50
2022-12-10T17:28:44.919Z,11.83
2022-12-10T17:31:31.452Z,12.80
2022-12-10T17:34:18.353Z,12.63
2022-12-10T17:37:11.438Z,13.13
2022-12-10T17:39:59.652Z,11.83
2022-12-10T17:42:46.835Z,12.37
2022-12-10T17:45:33.402Z,11.87
2022-12-10T17:48:20.427Z,12.33
2022-12-10T17:51:07.288Z,12.50
2022-12-10T17:53:53.915Z,12.67
2022-12-10T17:56:43.980Z,12.57
2022-12-10T17:59:32.986Z,12.70
2022-12-10T18:02:19.765Z,13.60
2022-12-10T18:05:06.757Z,12.53
2022-12-10T18:07:53.186Z,12.87
2022-12-10T18:10:41.031Z,11.77
2022-12-10T18:13:29.244Z,12.23
2022-12-10T18:16:18.199Z,12.40
2022-12-10T18:19:09.337Z,12.60
2022-12-10T18:21:55.952Z,13.70
2022-12-10T18:24:42.804Z,13.53
2022-12-10T18:27:29.179Z,14.63
2022-12-10T18:30:19.198Z,13.27
2022-12-10T18:33:05.797Z,12.50
2022-12-10T18:35:52.714Z,13.23
2022-12-10T18:38:39.551Z,12.30
2022-12-10T18:41:26.741Z,12.33
2022-12-10T18:44:14.186Z,13.17
2022-12-10T18:47:02.260Z,12.40
2022-12-10T18:49:49.036Z,12.57
2022-12-10T18:52:35.496Z,12.93
2022-12-10T18:55:24.014Z,11.83
2022-12-10T18:58:11.136Z,12.80
2022-12-10T19:00:58.012Z,13.60
2022-12-10T19:03:48.763Z,13.93
2022-12-10T19:06:36.968Z,18.73
2022-12-10T19:09:23.402Z,15.37
2022-12-10T19:12:11.182Z,14.50
2022-12-10T19:14:58.023Z,13.33
2022-12-10T19:17:44.918Z,12.70
2022-12-10T19:20:33.534Z,12.40
2022-12-10T19:23:20.189Z,13.00
2022-12-10T19:26:25.962Z,12.90
2022-12-10T19:29:15.613Z,12.33
2022-12-10T19:32:02.062Z,11.07
2022-12-10T19:34:48.471Z,13.10
2022-12-10T19:37:36.362Z,12.87
2022-12-10T19:40:24.943Z,13.13
2022-12-10T19:43:14.407Z,13.90
2022-12-10T19:46:01.326Z,13.17
2022-12-10T19:48:48.786Z,13.70
2022-12-10T19:51:35.317Z,13.33
2022-12-10T19:54:23.125Z,14.03
2022-12-10T19:57:12.483Z,13.33
2022-12-10T19:59:59.040Z,13.93
2022-12-10T20:02:45.705Z,13.03
2022-12-10T20:05:32.429Z,14.27
2022-12-10T20:08:19.071Z,13.23
2022-12-10T20:11:07.312Z,12.77
2022-12-10T20:13:54.078Z,13.43
2022-12-10T20:16:41.546Z,13.67
2022-12-10T20:19:28.286Z,14.53
2022-12-10T20:22:14.737Z,12.70
2022-12-10T20:25:01.322Z,13.37
2022-12-10T20:27:49.283Z,12.97
2022-12-10T20:30:36.757Z,12.43
2022-12-10T20:33:45.223Z,13.17
2022-12-10T20:36:30.149Z,11.27
2022-12-10T20:39:19.689Z,12.00
2022-12-10T20:42:06.254Z,12.47
2022-12-10T20:44:54.553Z,11.73
2022-12-10T20:47:41.382Z,10.93
2022-12-10T20:50:28.128Z,12.80
2022-12-10T20:53:15.147Z,13.07
2022-12-10T20:56:02.532Z,13.40
2022-12-10T20:58:50.813Z,12.17
2022-12-10T21:01:38.921Z,12.40
2022-12-10T21:04:26.646Z,12.77
2022-12-10T21:07:15.125Z,12.73
2022-12-10T21:10:01.695Z,12.90
2022-12-10T21:12:48.022Z,12.70
2022-12-10T21:15:35.326Z,12.27
2022-12-10T21:18:24.256Z,12.47
2022-12-10T21:21:14.075Z,12.90
2022-12-10T21:24:00.714Z,12.43
2022-12-10T21:26:47.611Z,12.30
2022-12-10T21:29:34.172Z,12.70
2022-12-10T21:32:20.502Z,11.97
2022-12-10T21:35:09.347Z,12.30
2022-12-10T21:37:56.066Z,13.33
2022-12-10T21:40:44.316Z,13.47
2022-12-10T21:43:30.127Z,13.30
2022-12-10T21:46:16.669Z,12.27
2022-12-10T21:49:03.984Z,12.33
2022-12-10T21:51:51.963Z,11.97
2022-12-10T21:54:38.716Z,12.00
2022-12-10T21:57:25.244Z,12.00
2022-12-10T22:00:13.599Z,12.10
2022-12-10T22:03:00.225Z,10.93
2022-12-10T22:05:47.132Z,11.43
2022-12-10T22:08:35.837Z,10.77
2022-12-10T22:11:22.556Z,11.17
2022-12-10T22:14:09.403Z,11.60
2022-12-10T22:16:56.088Z,11.23
2022-12-10T22:19:43.214Z,11.70
2022-12-10T22:22:29.982Z,12.17
2022-12-10T22:25:17.886Z,11.90
2022-12-10T22:28:04.878Z,11.30
2022-12-10T22:30:51.330Z,11.93
2022-12-10T22:33:38.519Z,11.87
2022-12-10T22:36:25.513Z,11.70
2022-12-10T22:39:12.120Z,12.80
2022-12-10T22:42:00.124Z,12.20
2022-12-10T22:44:46.859Z,11.93
2022-12-10T22:47:33.202Z,12.40
2022-12-10T22:50:19.901Z,12.10
2022-12-10T22:53:06.718Z,12.33
2022-12-10T22:55:59.011Z,12.13
2022-12-10T22:58:47.032Z,12.40
2022-12-10T23:01:33.999Z,12.23
2022-12-10T23:04:20.852Z,12.03
2022-12-10T23:07:08.607Z,12.10
2022-12-10T23:09:55.091Z,12.00
2022-12-10T23:12:59.446Z,11.93
2022-12-10T23:15:48.321Z,12.13
2022-12-10T23:18:35.206Z,11.53
2022-12-10T23:21:24.050Z,11.43
2022-12-10T23:24:11.160Z,12.33
2022-12-10T23:26:57.671Z,11.33
2022-12-10T23:29:44.627Z,11.90
2022-12-10T23:32:32.632Z,11.70
2022-12-10T23:35:19.772Z,12.47
2022-12-10T23:38:06.559Z,12.07
2022-12-10T23:40:53.160Z,12.33
2022-12-10T23:43:40.017Z,11.83
2022-12-10T23:46:26.582Z,12.27
2022-12-10T23:49:14.823Z,11.53
2022-12-10T23:52:07.771Z,12.20
2022-12-10T23:54:56.329Z,11.70
2022-12-10T23:57:42.928Z,11.83
